Time;durP1;ratioP1;P1;durP2;ratioP2;P2;SDS_P1;SDS_P2;PMS_P1;PMS_P2;Temp;Humidity;BMP_temperature;BMP_pressure;BME280_temperature;BME280_humidity;BME280_pressure;Samples;Min_cycle;Max_cycle;Signal;HPM_P1;HPM_P2
2021/09/10 00:01:10;;;;;;;8.00;7.22;;;22.20;77.30;;;;;;5132414;28;20104;-48
2021/09/10 00:03:36;;;;;;;7.07;6.38;;;22.10;77.20;;;;;;5132842;28;20424;-50
2021/09/10 00:06:02;;;;;;;6.78;6.18;;;22.20;77.30;;;;;;5132986;28;20039;-53
2021/09/10 00:08:27;;;;;;;7.30;6.60;;;22.20;77.30;;;;;;5132372;28;20509;-53
2021/09/10 00:10:53;;;;;;;8.20;7.47;;;22.20;77.30;;;;;;5130726;28;20065;-53
2021/09/10 00:13:19;;;;;;;7.43;6.72;;;22.20;77.30;;;;;;5131882;28;20067;-54
2021/09/10 00:15:44;;;;;;;7.10;6.50;;;22.20;77.30;;;;;;5132184;28;20043;-52
2021/09/10 00:18:10;;;;;;;7.43;6.72;;;22.10;77.20;;;;;;5132473;28;20479;-50
2021/09/10 00:20:35;;;;;;;7.30;6.38;;;22.20;77.30;;;;;;5132019;27;20075;-53
2021/09/10 00:23:01;;;;;;;7.90;7.10;;;22.10;77.20;;;;;;5135798;27;20039;-51
2021/09/10 00:25:27;;;;;;;7.35;6.65;;;22.20;77.30;;;;;;5135864;27;20505;-54
2021/09/10 00:27:52;;;;;;;6.57;5.97;;;22.10;77.20;;;;;;5135572;27;20035;-55
2021/09/10 00:30:18;;;;;;;7.85;7.05;;;22.10;77.20;;;;;;5135891;27;20054;-54
2021/09/10 00:32:44;;;;;;;8.13;7.32;;;22.10;77.20;;;;;;5135601;27;20039;-52
2021/09/10 00:35:11;;;;;;;7.20;6.50;;;22.10;77.20;;;;;;5136361;27;20122;-49
2021/09/10 00:37:37;;;;;;;6.85;6.18;;;22.10;77.20;;;;;;5135567;27;20043;-49
2021/09/10 00:40:06;;;;;;;7.05;6.45;;;22.20;77.20;;;;;;5135719;27;20047;-53
2021/09/10 00:42:32;;;;;;;7.13;6.43;;;22.10;77.20;;;;;;5135799;27;20043;-53
2021/09/10 00:44:58;;;;;;;7.13;6.43;;;22.20;77.20;;;;;;5135596;27;20039;-51
2021/09/10 00:47:24;;;;;;;7.38;6.65;;;22.20;77.50;;;;;;5135367;27;20039;-51
2021/09/10 00:49:52;;;;;;;7.40;6.70;;;22.20;77.30;;;;;;5135563;27;20085;-50
2021/09/10 00:52:18;;;;;;;7.85;7.05;;;22.10;77.20;;;;;;5135054;27;20077;-53
2021/09/10 00:54:44;;;;;;;7.25;6.55;;;22.10;77.20;;;;;;5135222;27;20047;-51
2021/09/10 00:57:10;;;;;;;7.13;6.43;;;22.10;77.20;;;;;;5135305;27;20050;-52
2021/09/10 00:59:36;;;;;;;7.47;6.78;;;22.10;77.20;;;;;;5135590;27;20039;-52
2021/09/10 01:02:02;;;;;;;7.32;6.63;;;22.10;77.20;;;;;;5134966;27;20078;-52
2021/09/10 01:04:29;;;;;;;7.38;6.63;;;22.20;77.20;;;;;;5134507;27;20471;-53
2021/09/10 01:06:56;;;;;;;6.50;5.90;;;22.10;77.20;;;;;;5135569;27;20078;-56
2021/09/10 01:09:22;;;;;;;6.60;6.00;;;22.10;77.20;;;;;;5134731;27;20425;-54
2021/09/10 01:11:52;;;;;;;6.75;5.90;;;22.10;77.20;;;;;;5134311;27;20490;-53
2021/09/10 01:14:18;;;;;;;6.95;6.25;;;22.10;77.20;;;;;;5134887;27;20118;-51
2021/09/10 01:16:46;;;;;;;6.30;5.70;;;22.10;77.20;;;;;;5134225;27;20261;-50
2021/09/10 01:19:29;;;;;;;6.20;5.60;;;22.10;77.30;;;;;;5135175;27;20046;-54
2021/09/10 01:22:01;;;;;;;6.85;6.15;;;22.10;77.20;;;;;;5134462;27;20081;-54
2021/09/10 01:24:53;;;;;;;6.50;5.85;;;22.20;77.30;;;;;;5116470;27;20070;-55
2021/09/10 01:27:19;;;;;;;6.43;5.82;;;22.10;77.20;;;;;;5051013;28;20049;-55
2021/09/10 01:29:45;;;;;;;7.10;6.40;;;22.10;77.20;;;;;;5050873;28;20045;-50
2021/09/10 01:32:13;;;;;;;6.97;6.38;;;22.10;77.20;;;;;;5050555;28;20579;-49
2021/09/10 01:34:39;;;;;;;5.75;5.25;;;22.10;77.20;;;;;;5051477;28;20416;-52
2021/09/10 01:37:04;;;;;;;6.25;5.65;;;22.10;77.20;;;;;;5051064;28;20041;-55
2021/09/10 01:39:30;;;;;;;7.20;6.55;;;22.10;77.20;;;;;;5051297;28;20051;-54
2021/09/10 01:41:55;;;;;;;6.15;5.55;;;22.10;77.20;;;;;;5051581;28;20052;-47
2021/09/10 01:44:21;;;;;;;6.75;6.15;;;22.10;77.20;;;;;;5050712;28;20175;-52
2021/09/10 01:46:47;;;;;;;6.10;5.50;;;22.10;77.30;;;;;;5051088;28;20509;-51
2021/09/10 01:49:12;;;;;;;6.10;5.57;;;22.10;77.30;;;;;;5050583;28;20152;-52
2021/09/10 01:51:38;;;;;;;6.47;5.88;;;22.10;77.20;;;;;;5050775;28;20053;-51
2021/09/10 01:54:04;;;;;;;6.38;5.78;;;22.10;77.20;;;;;;5050419;28;20045;-52
2021/09/10 01:56:30;;;;;;;6.40;5.80;;;22.10;77.20;;;;;;5051074;28;20123;-53
2021/09/10 01:58:56;;;;;;;6.30;5.70;;;22.10;77.20;;;;;;5050793;28;20037;-54
2021/09/10 02:01:26;;;;;;;6.18;5.60;;;22.10;77.20;;;;;;5050916;28;20041;-52
2021/09/10 02:03:52;;;;;;;6.50;5.90;;;22.10;77.20;;;;;;5083881;27;20047;-51
2021/09/10 02:06:19;;;;;;;6.15;5.65;;;22.10;77.20;;;;;;5134333;27;20047;-52
2021/09/10 02:08:44;;;;;;;6.32;5.72;;;22.10;77.20;;;;;;5134504;27;20036;-52
2021/09/10 02:11:10;;;;;;;6.32;5.72;;;22.10;77.20;;;;;;5133741;27;20043;-54
2021/09/10 02:13:36;;;;;;;6.20;5.60;;;22.10;77.20;;;;;;5133605;27;20039;-52
2021/09/10 02:16:02;;;;;;;6.20;5.60;;;22.10;77.20;;;;;;5133732;27;20191;-52
2021/09/10 02:18:28;;;;;;;6.10;5.50;;;22.10;77.20;;;;;;5134025;27;20088;-53
2021/09/10 02:20:53;;;;;;;6.22;5.63;;;22.20;77.30;;;;;;5133182;27;20050;-56
2021/09/10 02:23:19;;;;;;;6.18;5.57;;;22.10;77.20;;;;;;5133407;27;20054;-54
2021/09/10 02:25:45;;;;;;;6.57;5.97;;;22.10;77.20;;;;;;5133603;27;20035;-53
2021/09/10 02:28:10;;;;;;;6.25;5.65;;;22.10;77.20;;;;;;5133835;27;20047;-53
2021/09/10 02:30:36;;;;;;;6.25;5.65;;;22.10;77.20;;;;;;5133507;27;20569;-51
2021/09/10 02:33:02;;;;;;;5.78;5.28;;;22.10;77.20;;;;;;5133685;27;20141;-52
2021/09/10 02:35:27;;;;;;;6.05;5.45;;;22.10;77.20;;;;;;5133326;27;20380;-53
2021/09/10 02:37:53;;;;;;;5.93;5.32;;;22.20;77.30;;;;;;5133761;27;20047;-52
2021/09/10 02:40:20;;;;;;;5.93;5.43;;;22.10;77.30;;;;;;5114389;27;20066;-54
2021/09/10 02:42:47;;;;;;;6.80;6.00;;;22.10;77.20;;;;;;5133375;27;20035;-55
2021/09/10 02:45:12;;;;;;;5.30;4.80;;;22.10;77.20;;;;;;5132636;27;20657;-49
2021/09/10 02:47:38;;;;;;;5.65;5.15;;;22.10;77.20;;;;;;5133159;27;20035;-52
2021/09/10 02:50:05;;;;;;;5.68;5.18;;;22.10;77.30;;;;;;5114553;27;20403;-51
2021/09/10 02:52:33;;;;;;;5.57;5.07;;;22.20;77.30;;;;;;5132766;27;20045;-52
2021/09/10 02:54:59;;;;;;;5.93;5.43;;;22.10;77.20;;;;;;5133308;27;20046;-53
2021/09/10 02:57:25;;;;;;;5.80;5.28;;;22.00;77.20;;;;;;5133339;27;20054;-53
2021/09/10 02:59:50;;;;;;;5.85;5.35;;;22.10;77.20;;;;;;5133249;27;20043;-54
2021/09/10 03:02:16;;;;;;;5.47;4.97;;;22.10;77.20;;;;;;5133505;27;20039;-55
2021/09/10 03:04:45;;;;;;;5.75;5.15;;;22.10;77.30;;;;;;5133370;27;20058;-53
2021/09/10 03:07:11;;;;;;;6.03;5.53;;;22.10;77.20;;;;;;5132926;27;20087;-53
2021/09/10 03:09:37;;;;;;;5.50;4.97;;;22.10;77.20;;;;;;5132362;27;20505;-57
2021/09/10 03:12:03;;;;;;;5.63;5.13;;;22.10;77.20;;;;;;5132518;27;20039;-48
2021/09/10 03:14:31;;;;;;;5.50;5.00;;;22.10;77.30;;;;;;5132609;28;20544;-55
2021/09/10 03:16:57;;;;;;;5.43;4.93;;;22.10;77.20;;;;;;5114668;28;20337;-53
2021/09/10 03:19:23;;;;;;;5.55;5.05;;;22.20;77.30;;;;;;5132979;28;20045;-49
2021/09/10 03:21:49;;;;;;;5.57;5.07;;;22.10;77.20;;;;;;5132643;28;20092;-53
2021/09/10 03:24:15;;;;;;;5.22;4.72;;;22.10;77.20;;;;;;5113325;28;20139;-52
2021/09/10 03:26:41;;;;;;;5.55;5.05;;;22.10;77.20;;;;;;5132971;28;20051;-50
2021/09/10 03:29:07;;;;;;;5.32;4.93;;;22.10;77.30;;;;;;5132240;28;20035;-49
2021/09/10 03:31:33;;;;;;;5.00;4.60;;;22.10;77.30;;;;;;5133203;28;20386;-55
2021/09/10 03:33:58;;;;;;;5.28;4.78;;;22.10;77.30;;;;;;5133191;28;20039;-55
2021/09/10 03:36:24;;;;;;;5.72;5.22;;;22.10;77.20;;;;;;5132809;28;20057;-53
2021/09/10 03:38:50;;;;;;;5.63;5.13;;;22.10;77.30;;;;;;5132511;28;20039;-54
2021/09/10 03:41:15;;;;;;;5.50;5.00;;;22.20;77.30;;;;;;5131126;28;20035;-53
2021/09/10 03:43:42;;;;;;;5.18;4.68;;;22.10;77.30;;;;;;5132685;28;20042;-54
2021/09/10 03:46:09;;;;;;;5.53;5.03;;;22.10;77.30;;;;;;5132638;28;20096;-50
2021/09/10 03:48:35;;;;;;;5.40;4.90;;;22.10;77.30;;;;;;5132792;28;20104;-52
2021/09/10 03:51:00;;;;;;;5.28;4.78;;;22.10;77.30;;;;;;5132296;28;20078;-54
2021/09/10 03:53:26;;;;;;;5.78;5.28;;;22.10;77.30;;;;;;5132337;28;20035;-50
2021/09/10 03:55:52;;;;;;;5.10;4.60;;;22.10;77.30;;;;;;5132847;27;20035;-55
2021/09/10 03:58:17;;;;;;;6.00;5.15;;;22.10;77.30;;;;;;5136883;27;20046;-53
2021/09/10 04:00:43;;;;;;;5.18;4.68;;;22.10;77.30;;;;;;5135763;27;20087;-49
2021/09/10 04:03:09;;;;;;;5.60;5.10;;;22.10;77.30;;;;;;5136623;27;20501;-53
2021/09/10 04:05:35;;;;;;;5.70;5.20;;;22.10;77.30;;;;;;5136944;27;20027;-53
2021/09/10 04:08:00;;;;;;;5.45;4.93;;;22.10;77.30;;;;;;5137001;27;20425;-51
2021/09/10 04:10:26;;;;;;;4.88;4.47;;;22.10;77.30;;;;;;5136047;27;20130;-52
2021/09/10 04:12:53;;;;;;;5.35;4.85;;;22.10;77.30;;;;;;5136343;27;20031;-50
2021/09/10 04:15:19;;;;;;;5.28;4.78;;;22.10;77.30;;;;;;5118152;27;20089;-53
2021/09/10 04:17:45;;;;;;;5.43;4.93;;;22.10;77.30;;;;;;5135368;27;20425;-54
2021/09/10 04:20:12;;;;;;;5.40;4.90;;;22.10;77.30;;;;;;5135969;27;20504;-51
2021/09/10 04:22:41;;;;;;;4.85;4.45;;;22.10;77.30;;;;;;5136926;27;20128;-52
2021/09/10 04:25:08;;;;;;;4.95;4.53;;;22.10;77.30;;;;;;5136008;27;20039;-53
2021/09/10 04:27:34;;;;;;;4.68;4.28;;;22.10;77.30;;;;;;5136271;27;20051;-53
2021/09/10 04:29:59;;;;;;;5.22;4.82;;;22.10;77.30;;;;;;5135862;27;20075;-55
2021/09/10 04:32:25;;;;;;;5.22;4.70;;;22.10;77.30;;;;;;5135691;27;20046;-54
2021/09/10 04:34:51;;;;;;;5.25;4.78;;;22.10;77.30;;;;;;5136020;27;20398;-55
2021/09/10 04:37:17;;;;;;;5.50;5.00;;;22.10;77.30;;;;;;5136358;27;20437;-52
2021/09/10 04:39:43;;;;;;;5.43;4.93;;;22.10;77.30;;;;;;5135409;27;20484;-52
2021/09/10 04:42:09;;;;;;;5.30;4.80;;;22.10;77.30;;;;;;5135278;27;20039;-50
2021/09/10 04:44:35;;;;;;;5.38;4.88;;;22.10;77.30;;;;;;5135856;27;20092;-52
2021/09/10 04:47:01;;;;;;;5.57;5.07;;;22.10;77.30;;;;;;5135969;27;20118;-54
2021/09/10 04:49:26;;;;;;;5.95;5.35;;;22.10;77.30;;;;;;5135331;27;20440;-52
2021/09/10 04:51:52;;;;;;;5.50;5.00;;;22.10;77.30;;;;;;5135614;27;20162;-52
2021/09/10 04:54:18;;;;;;;5.47;4.97;;;22.10;77.30;;;;;;5134933;27;20079;-52
2021/09/10 04:56:45;;;;;;;5.00;4.57;;;22.10;77.30;;;;;;5135036;27;20035;-49
2021/09/10 04:59:12;;;;;;;5.10;4.60;;;22.10;77.30;;;;;;5134994;27;20118;-50
2021/09/10 05:01:37;;;;;;;5.80;5.30;;;22.10;77.30;;;;;;5135384;27;20079;-53
2021/09/10 05:04:03;;;;;;;5.45;4.95;;;22.10;77.30;;;;;;5135066;27;20078;-55
2021/09/10 05:06:29;;;;;;;5.00;4.50;;;22.10;77.30;;;;;;5135092;27;20043;-51
2021/09/10 05:08:56;;;;;;;5.60;5.10;;;22.10;77.30;;;;;;5134823;27;20039;-55
2021/09/10 05:11:22;;;;;;;5.10;4.60;;;22.10;77.30;;;;;;5134993;27;20130;-52
2021/09/10 05:13:48;;;;;;;5.15;4.63;;;22.10;77.40;;;;;;5133447;27;20119;-54
2021/09/10 05:16:13;;;;;;;5.07;4.65;;;22.10;77.30;;;;;;5134073;27;20053;-49
2021/09/10 05:18:39;;;;;;;5.15;4.65;;;22.10;77.30;;;;;;5134104;27;20436;-53
2021/09/10 05:21:05;;;;;;;5.40;5.00;;;22.10;77.30;;;;;;5133414;27;20773;-48
2021/09/10 05:23:31;;;;;;;5.05;4.55;;;22.10;77.30;;;;;;5133501;27;20039;-57
2021/09/10 05:25:58;;;;;;;5.82;5.30;;;22.10;77.30;;;;;;5134705;27;20080;-52
2021/09/10 05:28:24;;;;;;;5.40;4.90;;;22.10;77.30;;;;;;5134916;27;20041;-52
2021/09/10 05:30:50;;;;;;;5.32;4.82;;;22.10;77.30;;;;;;5134537;27;20043;-51
2021/09/10 05:33:16;;;;;;;4.97;4.57;;;22.10;77.30;;;;;;5134297;27;20042;-50
2021/09/10 05:35:42;;;;;;;5.25;4.75;;;22.10;77.30;;;;;;5133957;27;20104;-55
2021/09/10 05:38:08;;;;;;;5.00;4.50;;;22.10;77.30;;;;;;5134682;27;20424;-49
2021/09/10 05:40:35;;;;;;;4.70;4.30;;;22.10;77.30;;;;;;5134687;27;20084;-51
2021/09/10 05:43:00;;;;;;;5.18;4.68;;;22.10;78.00;;;;;;5132641;27;20525;-52
2021/09/10 05:45:26;;;;;;;5.05;4.65;;;22.10;77.30;;;;;;5133835;27;20035;-51
2021/09/10 05:47:52;;;;;;;5.10;4.60;;;22.10;77.30;;;;;;5134282;27;20039;-55
2021/09/10 05:50:18;;;;;;;4.93;4.30;;;22.10;78.00;;;;;;5134129;27;20047;-53
2021/09/10 05:52:44;;;;;;;4.90;4.40;;;22.10;77.30;;;;;;5134213;27;20415;-51
2021/09/10 05:55:10;;;;;;;4.70;4.30;;;22.10;77.30;;;;;;5133809;27;20045;-52
2021/09/10 05:57:36;;;;;;;5.55;5.05;;;22.10;77.30;;;;;;5133973;27;20390;-54
2021/09/10 06:00:03;;;;;;;4.82;4.43;;;22.10;77.40;;;;;;5133871;27;20530;-51
2021/09/10 06:02:29;;;;;;;4.75;4.35;;;22.10;77.30;;;;;;5134307;27;20039;-49
2021/09/10 06:04:55;;;;;;;5.50;5.00;;;22.10;77.30;;;;;;5133161;27;20104;-56
2021/09/10 06:07:21;;;;;;;5.25;4.75;;;22.10;77.30;;;;;;5134361;27;20074;-51
2021/09/10 06:09:47;;;;;;;5.18;4.68;;;22.10;77.30;;;;;;5115478;27;20054;-53
2021/09/10 06:12:13;;;;;;;5.10;4.60;;;22.10;77.30;;;;;;5133668;27;20623;-55
2021/09/10 06:14:39;;;;;;;5.13;4.60;;;22.10;77.40;;;;;;5133671;27;20095;-51
2021/09/10 06:17:05;;;;;;;4.72;4.30;;;22.10;77.30;;;;;;5114574;27;20049;-51
2021/09/10 06:19:31;;;;;;;5.68;5.07;;;22.10;77.30;;;;;;5132950;27;20202;-52
2021/09/10 06:21:57;;;;;;;5.70;5.20;;;22.10;77.30;;;;;;5133691;27;20039;-56
2021/09/10 06:24:23;;;;;;;4.63;4.22;;;22.10;77.40;;;;;;5133816;27;20513;-54
2021/09/10 06:26:49;;;;;;;5.15;4.75;;;22.10;77.40;;;;;;5133570;27;20116;-56
2021/09/10 06:29:15;;;;;;;5.65;5.15;;;22.10;77.40;;;;;;5134171;27;20039;-56
2021/09/10 06:31:41;;;;;;;5.20;4.70;;;22.10;77.40;;;;;;5133069;27;20071;-54
2021/09/10 06:34:07;;;;;;;5.50;5.00;;;22.10;77.40;;;;;;5133969;27;20035;-56
2021/09/10 06:36:34;;;;;;;5.15;4.65;;;22.10;77.40;;;;;;5133747;27;20051;-57
2021/09/10 06:38:59;;;;;;;5.43;4.93;;;22.10;77.40;;;;;;5134382;27;20039;-56
2021/09/10 06:41:25;;;;;;;4.97;4.50;;;22.10;77.40;;;;;;5133717;27;20072;-55
2021/09/10 06:43:51;;;;;;;4.95;4.45;;;22.10;77.40;;;;;;5133588;27;20110;-55
2021/09/10 06:46:17;;;;;;;4.97;4.47;;;22.10;77.40;;;;;;5132829;27;20099;-54
2021/09/10 06:48:43;;;;;;;4.85;4.43;;;22.10;77.40;;;;;;5133362;27;20089;-55
2021/09/10 06:51:09;;;;;;;5.80;5.25;;;22.10;77.40;;;;;;5133213;27;20043;-53
2021/09/10 06:53:36;;;;;;;5.63;5.13;;;22.10;77.40;;;;;;5133797;27;20043;-55
2021/09/10 06:56:02;;;;;;;5.15;4.65;;;22.10;77.40;;;;;;5133260;27;20062;-50
2021/09/10 06:58:28;;;;;;;4.65;4.25;;;22.10;77.40;;;;;;5132867;27;20109;-53
2021/09/10 07:00:54;;;;;;;5.65;5.15;;;22.10;77.40;;;;;;5133118;27;20093;-54
2021/09/10 07:03:19;;;;;;;5.38;4.88;;;22.10;77.40;;;;;;5132862;27;20042;-54
2021/09/10 07:05:45;;;;;;;4.80;4.40;;;22.10;78.00;;;;;;5132806;27;20039;-53
2021/09/10 07:08:11;;;;;;;4.95;4.35;;;22.10;77.40;;;;;;5132863;27;20085;-56
2021/09/10 07:10:37;;;;;;;4.75;4.32;;;22.10;77.40;;;;;;5132486;27;20039;-52
2021/09/10 07:13:03;;;;;;;5.70;5.13;;;22.00;77.40;;;;;;5133321;27;20032;-52
2021/09/10 07:15:29;;;;;;;4.90;4.50;;;22.10;77.40;;;;;;5133315;28;20423;-51
2021/09/10 07:17:54;;;;;;;23.35;19.73;;;22.00;77.30;;;;;;5132800;28;20455;-51
2021/09/10 07:20:20;;;;;;;16.58;12.50;;;22.10;78.20;;;;;;5132247;28;20051;-49
2021/09/10 07:22:46;;;;;;;15.20;13.13;;;22.10;78.30;;;;;;5113923;28;20176;-52
2021/09/10 07:25:12;;;;;;;18.50;15.63;;;22.10;78.40;;;;;;5132973;28;20554;-52
2021/09/10 07:27:38;;;;;;;17.10;14.68;;;22.10;78.60;;;;;;5115128;28;20035;-51
2021/09/10 07:30:04;;;;;;;19.80;15.55;;;22.10;78.70;;;;;;5130799;27;20383;-51
2021/09/10 07:32:30;;;;;;;16.83;14.07;;;22.10;78.80;;;;;;5136547;27;20046;-49
2021/09/10 07:34:56;;;;;;;17.65;15.68;;;22.10;78.90;;;;;;5135921;27;20051;-51
2021/09/10 07:37:27;;;;;;;17.10;14.23;;;22.10;78.90;;;;;;5136985;27;20035;-49
2021/09/10 07:39:53;;;;;;;19.02;15.45;;;22.10;79.00;;;;;;5136490;27;20064;-50
2021/09/10 07:42:20;;;;;;;18.02;15.35;;;22.10;79.00;;;;;;5134465;27;20045;-49
2021/09/10 07:44:46;;;;;;;16.77;15.00;;;22.00;79.10;;;;;;5135460;27;20039;-51
2021/09/10 07:47:12;;;;;;;19.10;15.38;;;22.10;79.20;;;;;;5136657;27;20035;-51
2021/09/10 07:49:38;;;;;;;19.58;15.60;;;22.10;79.20;;;;;;5135608;27;20039;-49
2021/09/10 07:52:04;;;;;;;22.05;16.25;;;22.10;79.30;;;;;;5135895;27;20150;-50
2021/09/10 07:54:30;;;;;;;18.38;15.68;;;22.10;79.40;;;;;;5136510;27;20064;-49
2021/09/10 07:56:56;;;;;;;20.63;15.88;;;22.10;79.40;;;;;;5133862;27;20080;-49
2021/09/10 07:59:21;;;;;;;20.15;16.45;;;22.10;79.50;;;;;;5136284;27;20039;-51
2021/09/10 08:01:47;;;;;;;20.92;15.90;;;22.10;79.50;;;;;;5136882;27;20036;-51
2021/09/10 08:04:13;;;;;;;20.20;16.67;;;22.10;79.60;;;;;;5135836;27;20432;-50
2021/09/10 08:06:39;;;;;;;21.65;17.20;;;22.10;79.70;;;;;;5136170;27;20471;-52
2021/09/10 08:09:05;;;;;;;22.83;17.48;;;22.10;79.70;;;;;;5136763;27;20055;-48
2021/09/10 08:11:33;;;;;;;22.83;16.85;;;22.10;79.70;;;;;;5134189;27;20483;-46
2021/09/10 08:14:01;;;;;;;20.58;17.08;;;22.10;79.70;;;;;;5135026;27;20035;-52
2021/09/10 08:16:28;;;;;;;21.17;17.35;;;22.10;79.70;;;;;;5134800;27;20054;-52
2021/09/10 08:18:53;;;;;;;29.75;22.27;;;22.10;79.80;;;;;;5133920;27;20050;-50
2021/09/10 08:21:19;;;;;;;25.13;19.80;;;22.10;80.40;;;;;;5135632;27;20055;-50
2021/09/10 08:23:45;;;;;;;23.83;18.98;;;22.10;80.40;;;;;;5116895;27;20195;-46
2021/09/10 08:26:11;;;;;;;22.90;18.25;;;22.10;80.30;;;;;;5134772;27;20039;-47
2021/09/10 08:28:36;;;;;;;18.83;15.65;;;22.10;80.20;;;;;;5134588;27;20039;-47
2021/09/10 08:31:02;;;;;;;17.83;15.48;;;22.10;80.10;;;;;;5134723;27;20039;-43
2021/09/10 08:33:27;;;;;;;18.52;15.48;;;22.10;80.00;;;;;;5133617;27;20057;-46
2021/09/10 08:35:53;;;;;;;19.85;14.43;;;22.10;79.90;;;;;;5136325;27;20046;-44
2021/09/10 08:38:19;;;;;;;16.38;13.43;;;22.10;79.70;;;;;;5135292;27;20527;-47
2021/09/10 08:40:46;;;;;;;23.77;18.00;;;22.10;79.70;;;;;;5116027;27;20055;-49
2021/09/10 08:43:12;;;;;;;23.63;17.88;;;22.10;80.00;;;;;;5134927;27;20468;-46
2021/09/10 08:45:38;;;;;;;19.77;16.42;;;22.10;80.20;;;;;;5135606;27;20515;-46
2021/09/10 08:48:05;;;;;;;21.73;16.38;;;22.10;80.90;;;;;;5134127;27;20133;-46
2021/09/10 08:50:31;;;;;;;18.80;15.68;;;22.10;80.20;;;;;;5117435;27;20050;-47
2021/09/10 08:52:57;;;;;;;17.35;15.15;;;22.10;80.10;;;;;;5135496;27;20039;-44
2021/09/10 08:55:22;;;;;;;19.30;14.25;;;22.10;80.00;;;;;;5134547;27;20061;-47
2021/09/10 08:57:51;;;;;;;17.55;14.50;;;22.10;80.00;;;;;;5135003;27;20110;-44
2021/09/10 09:00:18;;;;;;;17.23;14.35;;;22.10;79.90;;;;;;5134803;27;20035;-43
2021/09/10 09:02:57;;;;;;;16.58;13.65;;;22.10;79.80;;;;;;5134291;27;20042;-44
2021/09/10 09:05:28;;;;;;;17.30;13.73;;;22.10;79.70;;;;;;5134800;27;20059;-48
2021/09/10 09:08:10;;;;;;;16.85;14.25;;;22.10;79.70;;;;;;5134102;27;20121;-46
2021/09/10 09:11:00;;;;;;;16.60;13.40;;;22.10;79.60;;;;;;5131808;27;20383;-47
2021/09/10 09:13:32;;;;;;;16.85;13.48;;;22.10;79.50;;;;;;5133502;27;20054;-45
2021/09/10 09:16:25;;;;;;;17.27;13.48;;;22.10;79.40;;;;;;5131753;27;20063;-45
2021/09/10 09:18:52;;;;;;;16.27;14.52;;;22.10;79.40;;;;;;5133242;27;20117;-47
2021/09/10 09:21:29;;;;;;;15.07;13.30;;;22.10;79.30;;;;;;5133960;27;20043;-44
2021/09/10 09:23:57;;;;;;;16.17;13.20;;;22.10;79.20;;;;;;5132537;27;20046;-45
2021/09/10 09:26:29;;;;;;;15.88;13.43;;;22.10;79.20;;;;;;5114837;27;20453;-47
2021/09/10 09:29:10;;;;;;;15.00;12.25;;;22.10;79.10;;;;;;5134356;27;20104;-40
2021/09/10 09:31:37;;;;;;;15.20;11.93;;;22.10;79.10;;;;;;5134172;27;20402;-45
2021/09/10 09:34:04;;;;;;;14.32;11.57;;;22.10;79.10;;;;;;5134780;27;20088;-45
2021/09/10 09:36:31;;;;;;;15.02;11.52;;;22.10;79.00;;;;;;5134653;27;20050;-45
2021/09/10 09:39:07;;;;;;;13.20;11.45;;;22.10;79.00;;;;;;5133893;27;20053;-45
2021/09/10 09:41:45;;;;;;;13.80;11.85;;;22.10;79.00;;;;;;5134618;27;20047;-45
2021/09/10 09:44:15;;;;;;;12.63;10.80;;;22.10;78.90;;;;;;5134481;27;20118;-44
2021/09/10 09:46:44;;;;;;;13.75;11.07;;;22.10;78.90;;;;;;5133971;27;20054;-44
2021/09/10 09:49:14;;;;;;;12.45;10.73;;;22.10;78.80;;;;;;5134665;27;20114;-43
2021/09/10 09:51:57;;;;;;;12.50;10.65;;;22.10;78.80;;;;;;5134481;27;20175;-43
2021/09/10 09:54:24;;;;;;;10.80;9.68;;;22.10;78.80;;;;;;5133803;27;20043;-45
2021/09/10 09:56:52;;;;;;;12.32;10.02;;;22.10;78.80;;;;;;5134212;27;20050;-46
2021/09/10 09:59:19;;;;;;;11.40;9.65;;;22.10;78.70;;;;;;5133479;27;20096;-43
2021/09/10 10:01:45;;;;;;;12.63;10.63;;;22.10;78.70;;;;;;5132732;27;20463;-42
2021/09/10 10:04:10;;;;;;;12.25;10.05;;;22.10;78.70;;;;;;5133901;27;20042;-43
2021/09/10 10:06:38;;;;;;;13.05;10.80;;;22.10;78.70;;;;;;5133389;27;20047;-43
2021/09/10 10:09:10;;;;;;;10.23;9.05;;;22.10;78.60;;;;;;5132642;27;20100;-45
2021/09/10 10:11:47;;;;;;;10.65;9.30;;;22.10;78.60;;;;;;5134228;27;20133;-44
2021/09/10 10:14:30;;;;;;;11.93;9.85;;;22.10;78.60;;;;;;5133893;27;20395;-49
2021/09/10 10:16:56;;;;;;;10.45;9.35;;;22.10;78.60;;;;;;5113897;27;20054;-45
2021/09/10 10:19:24;;;;;;;10.95;9.65;;;22.10;78.60;;;;;;5134084;27;20054;-44
2021/09/10 10:21:54;;;;;;;10.35;8.90;;;22.10;78.60;;;;;;5134405;27;20130;-45
2021/09/10 10:24:38;;;;;;;10.52;9.40;;;22.10;78.60;;;;;;5130676;27;20042;-41
2021/09/10 10:27:38;;;;;;;10.20;8.73;;;22.10;78.60;;;;;;5128837;27;20059;-42
2021/09/10 10:30:14;;;;;;;9.50;8.27;;;22.10;78.60;;;;;;5133216;27;20130;-42
2021/09/10 10:32:42;;;;;;;10.00;8.88;;;22.10;78.50;;;;;;5133899;27;20039;-46
2021/09/10 10:35:30;;;;;;;11.57;8.93;;;22.10;78.50;;;;;;5133866;27;20035;-45
2021/09/10 10:38:02;;;;;;;10.30;8.43;;;22.10;78.50;;;;;;5133635;27;20141;-47
2021/09/10 10:40:27;;;;;;;9.75;8.50;;;22.10;78.50;;;;;;5133423;27;20509;-43
2021/09/10 10:42:54;;;;;;;9.25;8.35;;;22.20;78.50;;;;;;5114733;27;20054;-47
2021/09/10 10:45:41;;;;;;;9.23;7.63;;;22.10;78.50;;;;;;5133207;27;20391;-45
2021/09/10 10:48:34;;;;;;;8.35;7.55;;;22.10;78.50;;;;;;5132920;27;20399;-46
2021/09/10 10:51:21;;;;;;;8.43;7.53;;;22.10;78.50;;;;;;5133163;27;20043;-44
2021/09/10 10:53:46;;;;;;;9.20;8.30;;;22.10;78.50;;;;;;5133473;27;20043;-45
2021/09/10 10:56:21;;;;;;;8.75;7.80;;;22.10;78.50;;;;;;5133396;27;20096;-44
2021/09/10 10:59:07;;;;;;;9.00;8.05;;;22.10;78.50;;;;;;5133033;27;20039;-44
2021/09/10 11:02:11;;;;;;;9.45;8.43;;;22.10;78.50;;;;;;5133142;27;20046;-46
2021/09/10 11:04:40;;;;;;;8.68;7.53;;;22.10;78.50;;;;;;5132883;27;20575;-45
2021/09/10 11:07:07;;;;;;;7.63;6.82;;;22.10;78.40;;;;;;5133592;27;20088;-44
2021/09/10 11:09:33;;;;;;;7.97;7.18;;;22.10;78.40;;;;;;5131655;27;20047;-42
2021/09/10 11:11:58;;;;;;;8.05;7.18;;;22.10;78.40;;;;;;5132452;27;20050;-43
2021/09/10 11:14:34;;;;;;;7.95;7.05;;;22.10;78.40;;;;;;5132343;27;20039;-46
2021/09/10 11:17:13;;;;;;;7.80;6.78;;;22.10;78.40;;;;;;5132627;27;20054;-47
2021/09/10 11:19:45;;;;;;;8.10;7.15;;;22.10;78.40;;;;;;5131800;28;20041;-45
2021/09/10 11:22:11;;;;;;;7.88;6.43;;;22.10;78.40;;;;;;5113626;28;20047;-42
2021/09/10 11:24:37;;;;;;;7.85;6.88;;;22.10;78.40;;;;;;5132659;28;20039;-47
2021/09/10 11:27:21;;;;;;;8.13;7.32;;;22.10;78.40;;;;;;5113761;28;20051;-46
2021/09/10 11:29:47;;;;;;;6.35;5.75;;;22.10;78.30;;;;;;5110229;27;20046;-44
2021/09/10 11:32:26;;;;;;;7.10;6.40;;;22.10;78.30;;;;;;5112810;28;20115;-47
2021/09/10 11:34:53;;;;;;;7.75;6.97;;;22.10;78.30;;;;;;5132702;28;20039;-46
2021/09/10 11:37:26;;;;;;;7.60;6.80;;;22.10;78.30;;;;;;5132937;28;20135;-45
2021/09/10 11:39:53;;;;;;;7.43;6.50;;;22.10;78.30;;;;;;5132745;28;20032;-48
2021/09/10 11:43:00;;;;;;;7.30;6.22;;;22.10;78.30;;;;;;5132153;28;20428;-47
2021/09/10 11:45:26;;;;;;;7.25;6.22;;;22.10;78.40;;;;;;5026065;28;20136;-46
2021/09/10 11:47:52;;;;;;;8.05;6.60;;;22.10;78.30;;;;;;5028098;28;20141;-41
2021/09/10 11:50:18;;;;;;;7.35;6.50;;;22.10;78.30;;;;;;5029264;28;20085;-50
2021/09/10 11:52:44;;;;;;;7.10;6.40;;;22.10;78.30;;;;;;5014352;28;20151;-43
2021/09/10 11:55:15;;;;;;;6.72;6.05;;;22.10;78.30;;;;;;5009267;28;20073;-41
2021/09/10 11:57:42;;;;;;;6.32;5.72;;;22.10;78.20;;;;;;5009221;28;20049;-45
2021/09/10 12:00:21;;;;;;;6.20;5.60;;;22.10;78.20;;;;;;5009334;28;20486;-42
2021/09/10 12:02:58;;;;;;;6.55;5.95;;;22.10;78.20;;;;;;5008647;28;20042;-44
2021/09/10 12:05:23;;;;;;;7.00;6.30;;;22.10;78.20;;;;;;5009464;28;20116;-42
2021/09/10 12:07:51;;;;;;;6.40;5.80;;;22.10;78.20;;;;;;5009377;28;20058;-44
2021/09/10 12:10:31;;;;;;;6.38;5.78;;;22.10;78.20;;;;;;5010368;28;20493;-43
2021/09/10 12:13:14;;;;;;;6.40;5.80;;;22.10;78.20;;;;;;5023129;28;20045;-44
2021/09/10 12:15:42;;;;;;;5.97;5.38;;;22.10;78.90;;;;;;5009416;28;20042;-44
2021/09/10 12:18:13;;;;;;;7.22;6.53;;;22.10;78.20;;;;;;5011303;28;20462;-44
2021/09/10 12:20:39;;;;;;;6.25;5.63;;;22.10;78.20;;;;;;5064027;27;20093;-45
2021/09/10 12:23:06;;;;;;;5.65;5.15;;;22.10;78.20;;;;;;5136016;27;20088;-42
2021/09/10 12:25:36;;;;;;;6.18;5.57;;;22.20;78.20;;;;;;5115852;28;20043;-42
2021/09/10 12:30:33;;;;;;;5.75;5.25;;;22.10;78.20;;;;;;5136361;27;20423;-46
2021/09/10 12:32:59;;;;;;;6.22;5.63;;;22.10;78.20;;;;;;5134085;27;20110;-44
2021/09/10 12:35:26;;;;;;;5.90;5.00;;;22.10;78.20;;;;;;5128614;27;20082;-48
2021/09/10 12:38:03;;;;;;;5.57;5.05;;;22.10;78.20;;;;;;5135412;27;20067;-42
2021/09/10 12:40:35;;;;;;;6.18;5.57;;;22.10;78.50;;;;;;5136128;27;20075;-50
2021/09/10 12:43:03;;;;;;;5.88;5.28;;;22.10;78.10;;;;;;5135966;27;20047;-46
2021/09/10 12:45:29;;;;;;;6.28;5.68;;;22.20;78.20;;;;;;5134915;27;20141;-44
2021/09/10 12:47:55;;;;;;;6.00;5.40;;;22.10;78.10;;;;;;5135865;27;20551;-46
2021/09/10 12:50:21;;;;;;;5.88;5.28;;;22.10;78.10;;;;;;5134505;27;20101;-47